createdAt,value
2022-10-21T00:55:04.920Z,15.77
2022-10-21T00:57:35.660Z,11.52
2022-10-21T01:00:32.593Z,12.80
2022-10-21T01:02:59.951Z,13.68
2022-10-21T01:05:27.115Z,13.43
2022-10-21T01:07:54.196Z,13.07
2022-10-21T01:10:21.077Z,12.95
2022-10-21T04:00:13.914Z,14.15
2022-10-21T04:08:18.114Z,13.80
2022-10-21T05:01:32.178Z,17.67
2022-10-21T05:03:58.946Z,14.87
2022-10-21T05:06:25.577Z,17.48
2022-10-21T05:08:52.191Z,17.15
2022-10-21T05:11:18.809Z,16.17
2022-10-21T05:13:45.612Z,17.70
2022-10-21T05:16:12.325Z,18.35
2022-10-21T05:19:03.120Z,18.77
2022-10-21T05:27:19.083Z,16.77
2022-10-21T05:29:45.710Z,18.30
2022-10-21T05:32:12.275Z,17.45
2022-10-21T05:34:38.867Z,16.60
2022-10-21T05:37:05.440Z,14.63
2022-10-21T05:39:32.052Z,16.48
2022-10-21T05:41:58.661Z,16.60
2022-10-21T05:44:25.226Z,15.27
2022-10-21T05:46:51.884Z,15.82
2022-10-21T05:49:18.442Z,14.85
2022-10-21T05:51:45.503Z,13.15
2022-10-21T05:54:12.158Z,16.67
2022-10-21T06:04:37.920Z,15.82
2022-10-21T06:07:14.472Z,14.43
2022-10-21T06:20:45.897Z,13.82
2022-10-21T07:29:26.771Z,13.85
2022-10-21T07:59:31.117Z,10.95
2022-10-21T08:01:57.701Z,9.80
2022-10-21T08:04:29.627Z,12.95
2022-10-21T08:06:56.748Z,11.82
2022-10-21T08:15:08.866Z,11.00
2022-10-21T08:17:35.653Z,8.52
2022-10-21T08:20:02.708Z,12.30
2022-10-21T08:22:51.219Z,10.38
2022-10-21T08:33:16.233Z,11.57
2022-10-21T08:35:43.579Z,9.05
2022-10-21T08:38:10.945Z,8.10
2022-10-21T08:43:35.374Z,7.78
2022-10-21T08:46:03.715Z,10.05
2022-10-21T08:49:07.289Z,9.95
2022-10-21T09:31:43.624Z,7.00
2022-10-21T09:34:38.964Z,5.53
2022-10-21T09:37:35.442Z,7.75
2022-10-21T09:40:16.397Z,6.50
2022-10-21T09:42:47.332Z,7.93
2022-10-21T10:04:30.130Z,7.72
2022-10-21T10:07:49.810Z,7.55
2022-10-21T10:11:05.682Z,9.52
2022-10-21T10:16:23.184Z,10.88
2022-10-21T10:19:25.891Z,7.50
2022-10-21T10:26:48.411Z,8.38
2022-10-21T10:32:01.495Z,7.55
2022-10-21T10:34:37.792Z,12.95
2022-10-21T10:40:41.947Z,6.50
2022-10-21T10:43:28.950Z,6.43
2022-10-21T10:45:59.323Z,9.02
2022-10-21T10:48:43.292Z,9.65
2022-10-21T10:51:27.841Z,9.95
2022-10-21T10:54:21.342Z,6.30
2022-10-21T10:56:47.841Z,7.47
2022-10-21T10:59:23.322Z,11.57
2022-10-21T11:01:56.397Z,7.55
2022-10-21T11:04:46.733Z,5.53
2022-10-21T11:07:29.008Z,6.65
2022-10-21T11:10:02.752Z,7.67
2022-10-21T11:12:29.294Z,6.25
2022-10-21T11:17:41.071Z,6.87
2022-10-21T11:20:31.069Z,6.50
2022-10-21T11:23:12.602Z,6.87
2022-10-21T11:26:03.203Z,9.40
2022-10-21T11:28:31.422Z,8.35
2022-10-21T11:31:09.875Z,8.07
2022-10-21T11:36:33.605Z,5.95
2022-10-21T11:41:48.507Z,5.47
2022-10-21T11:44:33.333Z,5.70
2022-10-21T11:47:24.720Z,7.93
2022-10-21T11:50:03.634Z,5.40
2022-10-21T11:52:33.066Z,6.03
2022-10-21T11:55:14.662Z,8.48
2022-10-21T11:58:05.806Z,5.20
2022-10-21T12:01:09.740Z,5.45
2022-10-21T12:04:05.621Z,5.47
2022-10-21T12:06:49.819Z,8.75
2022-10-21T12:09:43.747Z,5.35
2022-10-21T12:12:14.814Z,7.57
2022-10-21T12:14:53.693Z,6.82
2022-10-21T12:20:11.949Z,4.57
2022-10-21T12:22:38.805Z,5.85
2022-10-21T12:25:08.474Z,5.45
2022-10-21T12:28:06.306Z,6.05
2022-10-21T12:30:57.873Z,6.10
2022-10-21T12:33:36.315Z,13.38
2022-10-21T12:36:17.161Z,13.30
2022-10-21T12:41:40.600Z,5.18
2022-10-21T12:44:22.414Z,4.87
2022-10-21T12:46:56.115Z,7.57
2022-10-21T12:49:32.879Z,9.40
2022-10-21T12:52:08.197Z,5.70
2022-10-21T12:54:39.623Z,7.03
2022-10-21T12:57:09.504Z,6.70
2022-10-21T12:59:39.300Z,6.95
2022-10-21T13:02:05.783Z,8.60
2022-10-21T13:04:32.280Z,5.62
2022-10-21T13:07:25.928Z,5.85
2022-10-21T13:12:41.637Z,6.87
2022-10-21T13:15:20.185Z,5.75
2022-10-21T13:17:53.655Z,6.45
2022-10-21T13:20:20.120Z,7.37
2022-10-21T13:23:35.777Z,10.27
2022-10-21T13:26:19.609Z,17.75
2022-10-21T13:28:59.633Z,10.68
2022-10-21T13:31:26.525Z,7.50
2022-10-21T13:33:55.487Z,6.55
2022-10-21T13:42:15.575Z,11.52
2022-10-21T13:48:12.139Z,7.35
2022-10-21T13:50:42.665Z,6.65
2022-10-21T13:53:23.387Z,7.12
2022-10-21T13:55:55.658Z,6.62
2022-10-21T14:00:59.119Z,8.75
2022-10-21T14:03:26.578Z,14.20
2022-10-21T14:06:01.450Z,13.25
2022-10-21T14:11:23.399Z,9.38
2022-10-21T14:16:37.670Z,7.90
2022-10-21T14:21:49.285Z,9.07
2022-10-21T14:24:32.844Z,10.82
2022-10-21T14:27:00.848Z,9.23
2022-10-21T14:29:30.582Z,6.47
2022-10-21T14:31:57.935Z,7.03
2022-10-21T14:34:31.033Z,8.48
2022-10-21T14:37:22.442Z,9.57
2022-10-21T14:42:44.357Z,12.98
2022-10-21T14:45:16.710Z,10.93
2022-10-21T14:47:50.192Z,8.77
2022-10-21T14:50:22.916Z,7.28
2022-10-21T14:52:52.853Z,7.68
2022-10-21T14:55:29.388Z,8.55
2022-10-21T14:58:03.393Z,12.37
2022-10-21T15:03:43.980Z,12.65
2022-10-21T15:06:15.543Z,14.27
2022-10-21T15:09:06.852Z,10.18
2022-10-21T15:11:46.153Z,12.05
2022-10-21T15:14:12.633Z,10.55
2022-10-21T15:17:10.925Z,11.30
2022-10-21T15:22:25.864Z,12.48
2022-10-21T15:27:36.608Z,17.52
2022-10-21T15:32:39.147Z,16.02
2022-10-21T15:35:17.667Z,11.70
2022-10-21T15:37:49.296Z,8.88
2022-10-21T15:40:17.861Z,13.48
2022-10-21T15:42:46.087Z,12.55
2022-10-21T15:45:19.515Z,12.90
2022-10-21T15:47:54.121Z,8.05
2022-10-21T15:50:24.461Z,9.35
2022-10-21T15:52:51.540Z,8.27
2022-10-21T15:55:18.433Z,13.20
2022-10-21T15:57:45.465Z,11.43
2022-10-21T16:00:23.286Z,8.95
2022-10-21T16:02:53.871Z,11.38
2022-10-21T16:07:55.885Z,11.57
2022-10-21T16:10:35.230Z,12.75
2022-10-21T16:13:02.784Z,14.60
2022-10-21T16:15:29.643Z,10.50
2022-10-21T16:17:57.916Z,14.30
2022-10-21T16:20:28.126Z,11.02
2022-10-21T16:22:59.175Z,11.45
2022-10-21T16:25:28.687Z,15.02
2022-10-21T16:27:56.462Z,13.48
2022-10-21T16:30:32.450Z,12.13
2022-10-21T16:32:58.972Z,12.10
2022-10-21T16:35:25.991Z,13.90
2022-10-21T16:37:52.916Z,13.10
2022-10-21T16:40:31.808Z,13.88
2022-10-21T16:42:59.065Z,14.48
2022-10-21T16:45:30.242Z,13.95
2022-10-21T16:47:59.889Z,9.65
2022-10-21T16:50:45.798Z,10.35
2022-10-21T16:53:16.913Z,12.70
2022-10-21T16:55:43.710Z,12.85
2022-10-21T16:58:10.447Z,11.73
2022-10-21T17:00:37.116Z,11.27
2022-10-21T17:06:05.414Z,10.68
2022-10-21T17:08:32.048Z,11.15
2022-10-21T17:10:58.654Z,11.68
2022-10-21T17:13:25.229Z,14.35
2022-10-21T17:15:51.803Z,11.43
2022-10-21T17:18:18.428Z,12.73
2022-10-21T17:20:45.250Z,16.20
2022-10-21T17:23:11.913Z,15.30
2022-10-21T17:25:41.475Z,16.25
2022-10-21T17:28:08.929Z,17.20
2022-10-21T17:30:35.881Z,13.15
2022-10-21T17:33:02.614Z,18.05
2022-10-21T17:35:29.207Z,11.98
2022-10-21T17:37:55.810Z,12.00
2022-10-21T17:40:25.090Z,15.43
2022-10-21T17:42:51.972Z,10.98
2022-10-21T17:45:19.733Z,12.23
2022-10-21T17:47:46.883Z,11.52
2022-10-21T17:50:14.383Z,14.25
2022-10-21T17:52:42.018Z,12.93
2022-10-21T17:55:09.406Z,15.90
2022-10-21T18:00:12.251Z,12.70
2022-10-21T18:02:39.596Z,11.50
2022-10-21T18:05:08.196Z,15.02
2022-10-21T18:07:34.858Z,14.68
2022-10-21T18:10:01.455Z,12.75
2022-10-21T18:12:29.009Z,13.07
2022-10-21T18:14:55.518Z,12.95
2022-10-21T18:17:22.053Z,12.18
2022-10-21T18:19:48.666Z,11.10
2022-10-21T18:22:15.814Z,13.00
2022-10-21T18:30:24.323Z,19.77
2022-10-21T18:32:50.853Z,20.45
2022-10-21T18:37:59.303Z,19.27
2022-10-21T18:46:04.873Z,17.70
2022-10-21T18:48:44.005Z,20.85
2022-10-21T18:51:13.148Z,15.02
2022-10-21T18:53:39.941Z,14.13
2022-10-21T19:11:52.775Z,13.43
2022-10-21T19:14:20.332Z,9.43
2022-10-21T19:17:01.980Z,11.05
2022-10-21T19:19:28.616Z,13.82
2022-10-21T19:21:55.191Z,13.95
2022-10-21T19:24:21.760Z,18.20
2022-10-21T19:27:54.630Z,14.70
2022-10-21T19:30:40.927Z,13.70
2022-10-21T19:33:07.488Z,12.20
2022-10-21T19:35:34.194Z,10.38
2022-10-21T19:38:03.270Z,12.32
2022-10-21T19:40:34.666Z,11.65
2022-10-21T19:43:01.294Z,11.57
2022-10-21T19:50:45.713Z,12.02
2022-10-21T19:53:12.588Z,13.23
2022-10-21T19:55:39.467Z,13.75
2022-10-21T19:58:06.130Z,9.32
2022-10-21T20:01:25.702Z,12.13
2022-10-21T20:04:19.831Z,10.75
2022-10-21T20:06:58.263Z,16.67
2022-10-21T20:09:24.844Z,16.42
2022-10-21T20:25:14.306Z,16.62
2022-10-21T20:33:04.433Z,11.50
2022-10-21T20:35:31.060Z,13.40
2022-10-21T21:04:36.479Z,9.88
2022-10-21T21:07:09.419Z,10.43
2022-10-21T21:29:39.371Z,12.13
2022-10-21T21:32:05.982Z,12.27
2022-10-21T21:34:57.164Z,12.88
2022-10-21T21:37:25.634Z,11.07
2022-10-21T21:39:52.620Z,10.38
2022-10-21T21:42:19.207Z,13.68
2022-10-21T21:45:27.106Z,11.40
2022-10-21T21:49:05.500Z,11.70
2022-10-21T22:07:44.368Z,13.75
2022-10-21T22:10:11.344Z,13.45
2022-10-21T22:12:38.275Z,10.75
2022-10-21T22:15:05.253Z,12.85
2022-10-21T22:25:44.445Z,10.88
2022-10-21T22:28:11.012Z,11.02
2022-10-21T22:30:37.642Z,11.20
2022-10-21T22:33:04.238Z,13.40
2022-10-21T22:38:12.405Z,9.48
2022-10-21T22:40:38.947Z,11.45
2022-10-21T22:43:05.537Z,14.07
2022-10-21T22:45:32.893Z,11.02
2022-10-21T22:47:59.507Z,12.25
2022-10-21T23:06:33.919Z,12.60
2022-10-21T23:09:02.070Z,9.10
2022-10-21T23:11:29.495Z,10.18
2022-10-21T23:14:03.027Z,11.77
2022-10-21T23:16:34.289Z,10.75
2022-10-21T23:21:56.427Z,11.00
2022-10-21T23:24:24.513Z,9.10
2022-10-21T23:26:51.101Z,13.85
2022-10-21T23:29:17.746Z,10.70
2022-10-21T23:41:15.470Z,10.82
2022-10-21T23:43:42.032Z,7.87
2022-10-21T23:46:08.716Z,13.13
2022-10-21T23:48:35.308Z,10.55
2022-10-21T23:51:02.106Z,8.95
2022-10-21T23:53:28.685Z,7.65
